createdAt,value
2019-03-05T00:01:06.273Z,19.90
2019-03-05T00:03:33.026Z,19.90
2019-03-05T00:05:59.779Z,19.90
2019-03-05T00:08:26.975Z,19.90
2019-03-05T00:10:54.256Z,19.90
2019-03-05T00:13:21.089Z,19.90
2019-03-05T00:15:49.320Z,19.90
2019-03-05T00:18:16.051Z,19.90
2019-03-05T00:20:43.549Z,19.90
2019-03-05T00:23:10.263Z,19.90
2019-03-05T00:25:37.626Z,19.90
2019-03-05T00:28:19.228Z,19.80
2019-03-05T00:31:03.637Z,19.90
2019-03-05T00:34:04.911Z,19.90
2019-03-05T00:36:49.414Z,19.80
2019-03-05T00:39:43.200Z,19.90
2019-03-05T00:42:58.598Z,19.90
2019-03-05T00:45:53.912Z,19.90
2019-03-05T00:48:40.975Z,19.90
2019-03-05T00:51:25.067Z,19.90
2019-03-05T00:54:17.241Z,19.90
2019-03-05T00:57:02.090Z,19.80
2019-03-05T00:59:49.621Z,19.90
2019-03-05T01:02:54.657Z,19.90
2019-03-05T01:05:50.264Z,19.80
2019-03-05T01:08:19.583Z,19.80
2019-03-05T01:10:46.112Z,19.90
2019-03-05T01:13:12.854Z,19.90
2019-03-05T01:15:39.944Z,19.80
2019-03-05T01:18:06.671Z,19.80
2019-03-05T01:20:33.522Z,19.80
2019-03-05T01:23:00.555Z,19.80
2019-03-05T01:25:33.367Z,19.90
2019-03-05T01:28:00.232Z,19.80
2019-03-05T01:30:41.550Z,19.80
2019-03-05T01:33:10.465Z,19.80
2019-03-05T01:35:39.245Z,19.80
2019-03-05T01:38:05.999Z,19.80
2019-03-05T01:40:35.147Z,19.90
2019-03-05T01:43:01.876Z,19.90
2019-03-05T01:45:28.653Z,19.80
2019-03-05T01:47:55.453Z,19.80
2019-03-05T01:50:22.173Z,19.80
2019-03-05T01:52:49.380Z,19.90
2019-03-05T01:55:16.146Z,19.80
2019-03-05T01:57:43.115Z,19.90
2019-03-05T02:00:12.944Z,19.80
2019-03-05T02:02:39.685Z,19.80
2019-03-05T02:05:07.745Z,19.90
2019-03-05T02:07:34.949Z,19.80
2019-03-05T02:10:15.992Z,19.80
2019-03-05T02:12:43.017Z,19.80
2019-03-05T02:15:10.255Z,19.80
2019-03-05T02:17:37.111Z,19.80
2019-03-05T02:20:12.511Z,19.80
2019-03-05T02:22:39.926Z,19.80
2019-03-05T02:25:17.801Z,19.80
2019-03-05T02:27:53.416Z,19.80
2019-03-05T02:30:32.031Z,19.80
2019-03-05T02:33:13.219Z,19.80
2019-03-05T02:35:57.335Z,19.80
2019-03-05T02:38:44.970Z,19.80
2019-03-05T02:41:32.791Z,19.80
2019-03-05T02:44:38.319Z,19.80
2019-03-05T02:47:40.964Z,19.80
2019-03-05T02:50:54.689Z,19.80
2019-03-05T02:53:57.472Z,19.80
2019-03-05T02:56:44.732Z,19.80
2019-03-05T02:59:11.505Z,19.80
2019-03-05T03:01:47.124Z,19.80
2019-03-05T03:04:15.776Z,19.80
2019-03-05T03:06:42.486Z,19.80
2019-03-05T03:09:27.109Z,19.80
2019-03-05T03:11:53.847Z,19.80
2019-03-05T03:14:20.620Z,19.80
2019-03-05T03:16:47.809Z,19.80
2019-03-05T03:19:14.658Z,19.80
2019-03-05T03:21:41.397Z,19.80
2019-03-05T03:24:08.156Z,19.80
2019-03-05T03:26:34.876Z,19.80
2019-03-05T03:29:01.653Z,19.80
2019-03-05T03:31:28.428Z,19.80
2019-03-05T03:33:55.547Z,19.80
2019-03-05T03:36:22.593Z,19.80
2019-03-05T03:38:49.387Z,19.80
2019-03-05T03:41:16.204Z,19.80
2019-03-05T03:43:42.987Z,19.80
2019-03-05T03:46:10.147Z,19.80
2019-03-05T03:48:37.304Z,19.80
2019-03-05T03:51:04.850Z,19.80
2019-03-05T03:53:31.677Z,19.80
2019-03-05T03:55:58.417Z,19.80
2019-03-05T03:58:25.561Z,19.80
2019-03-05T04:00:52.290Z,19.80
2019-03-05T04:03:19.037Z,19.80
2019-03-05T04:05:45.769Z,19.80
2019-03-05T04:08:12.527Z,19.80
2019-03-05T04:10:39.437Z,19.80
2019-03-05T04:13:06.518Z,19.80
2019-03-05T04:15:33.349Z,19.80
2019-03-05T04:18:00.539Z,19.80
2019-03-05T04:20:31.169Z,19.80
2019-03-05T04:22:58.573Z,19.80
2019-03-05T04:25:27.404Z,19.80
2019-03-05T04:27:54.726Z,19.80
2019-03-05T04:30:21.746Z,19.80
2019-03-05T04:32:48.788Z,19.80
2019-03-05T04:35:15.548Z,19.80
2019-03-05T04:37:42.675Z,19.80
2019-03-05T04:40:13.353Z,19.80
2019-03-05T04:42:40.096Z,19.80
2019-03-05T04:45:42.763Z,19.80
2019-03-05T04:48:09.487Z,19.80
2019-03-05T04:50:45.308Z,19.80
2019-03-05T04:53:12.051Z,19.80
2019-03-05T04:55:38.806Z,19.80
2019-03-05T04:58:05.893Z,19.80
2019-03-05T05:00:32.804Z,19.80
2019-03-05T05:03:00.306Z,19.80
2019-03-05T05:05:27.411Z,19.80
2019-03-05T05:07:54.254Z,19.80
2019-03-05T05:10:20.980Z,19.80
2019-03-05T05:12:47.726Z,19.80
2019-03-05T05:15:27.655Z,19.80
2019-03-05T05:17:54.532Z,19.80
2019-03-05T05:20:21.704Z,19.80
2019-03-05T05:22:48.448Z,19.90
2019-03-05T05:25:15.206Z,19.90
2019-03-05T05:27:41.983Z,19.90
2019-03-05T05:30:31.568Z,20.00
2019-03-05T05:32:58.613Z,20.00
2019-03-05T05:35:25.488Z,20.10
2019-03-05T05:37:52.606Z,20.10
2019-03-05T05:40:38.568Z,20.10
2019-03-05T05:43:12.915Z,20.20
2019-03-05T05:45:46.980Z,20.30
2019-03-05T05:48:13.698Z,20.40
2019-03-05T05:50:40.447Z,20.40
2019-03-05T05:53:07.253Z,20.50
2019-03-05T05:55:34.015Z,20.60
2019-03-05T05:58:01.274Z,20.60
2019-03-05T06:00:28.081Z,20.70
2019-03-05T06:02:54.964Z,20.80
2019-03-05T06:05:22.185Z,20.80
2019-03-05T06:07:48.958Z,20.80
2019-03-05T06:10:15.701Z,20.90
2019-03-05T06:12:42.599Z,20.90
2019-03-05T06:15:12.942Z,21.00
2019-03-05T06:17:39.865Z,21.00
2019-03-05T06:20:14.531Z,21.10
2019-03-05T06:22:43.482Z,21.10
2019-03-05T06:25:13.487Z,21.10
2019-03-05T06:27:40.572Z,21.10
2019-03-05T06:30:15.547Z,21.20
2019-03-05T06:32:42.796Z,21.10
2019-03-05T06:35:10.384Z,21.20
2019-03-05T06:37:37.560Z,21.20
2019-03-05T06:40:16.701Z,21.20
2019-03-05T06:42:43.434Z,21.20
2019-03-05T06:45:16.390Z,21.20
2019-03-05T06:47:43.465Z,21.30
2019-03-05T06:50:14.703Z,21.30
2019-03-05T06:52:41.863Z,21.20
2019-03-05T06:55:12.085Z,21.30
2019-03-05T06:57:38.896Z,21.30
2019-03-05T07:00:25.427Z,21.30
2019-03-05T07:02:52.347Z,21.30
2019-03-05T07:06:16.122Z,21.30
2019-03-05T07:08:51.633Z,21.30
2019-03-05T07:11:39.437Z,21.40
2019-03-05T07:14:36.429Z,21.40
2019-03-05T07:17:20.432Z,21.40
2019-03-05T07:20:33.018Z,21.40
2019-03-05T07:23:23.146Z,21.40
2019-03-05T07:25:50.020Z,21.40
2019-03-05T07:28:17.108Z,21.40
2019-03-05T07:30:43.890Z,21.40
2019-03-05T07:33:11.057Z,21.50
2019-03-05T07:35:37.957Z,21.50
2019-03-05T07:38:04.688Z,21.50
2019-03-05T07:40:31.429Z,21.50
2019-03-05T07:42:58.382Z,21.50
2019-03-05T07:45:25.252Z,21.50
2019-03-05T07:47:52.094Z,21.50
2019-03-05T07:50:19.175Z,21.60
2019-03-05T07:52:46.258Z,21.60
2019-03-05T07:55:14.407Z,21.60
2019-03-05T07:57:41.216Z,21.60
2019-03-05T08:00:18.929Z,21.60
2019-03-05T08:02:45.686Z,21.60
2019-03-05T08:05:13.603Z,21.60
2019-03-05T08:07:40.636Z,21.70
2019-03-05T08:10:22.063Z,21.70
2019-03-05T08:13:03.685Z,21.70
2019-03-05T08:16:10.597Z,21.80
2019-03-05T08:18:37.852Z,21.80
2019-03-05T08:21:05.437Z,21.90
2019-03-05T08:23:32.676Z,21.90
2019-03-05T08:25:59.481Z,22.00
2019-03-05T08:28:26.206Z,22.10
2019-03-05T08:30:53.348Z,22.20
2019-03-05T08:33:20.345Z,22.20
2019-03-05T08:35:47.497Z,22.30
2019-03-05T08:38:14.327Z,22.40
2019-03-05T08:40:41.619Z,22.40
2019-03-05T08:43:08.406Z,22.50
2019-03-05T08:45:35.216Z,22.50
2019-03-05T08:48:02.005Z,22.50
2019-03-05T08:50:29.011Z,22.60
2019-03-05T08:52:56.170Z,22.60
2019-03-05T08:55:22.931Z,22.70
2019-03-05T08:57:50.121Z,22.70
2019-03-05T09:00:19.004Z,22.70
2019-03-05T09:02:49.060Z,22.70
2019-03-05T09:05:16.154Z,22.80
2019-03-05T09:07:43.169Z,22.80
2019-03-05T09:10:19.388Z,22.90
2019-03-05T09:12:46.542Z,22.90
2019-03-05T09:15:17.904Z,22.90
2019-03-05T09:17:44.753Z,23.00
2019-03-05T09:20:16.683Z,23.00
2019-03-05T09:22:43.446Z,23.00
2019-03-05T09:25:14.716Z,23.00
2019-03-05T09:27:41.648Z,23.00
2019-03-05T09:30:20.336Z,23.00
2019-03-05T09:32:47.672Z,23.00
2019-03-05T09:35:15.680Z,23.10
2019-03-05T09:37:43.814Z,23.00
2019-03-05T09:40:24.173Z,23.00
2019-03-05T09:42:51.364Z,23.00
2019-03-05T09:45:19.724Z,23.10
2019-03-05T09:47:46.792Z,23.00
2019-03-05T09:50:18.400Z,23.00
2019-03-05T09:52:54.451Z,23.10
2019-03-05T09:55:30.251Z,23.10
2019-03-05T09:58:07.527Z,23.00
2019-03-05T10:00:27.304Z,23.10
2019-03-05T10:02:54.171Z,23.10
2019-03-05T10:05:21.274Z,23.10
2019-03-05T10:07:48.218Z,23.10
2019-03-05T10:10:26.837Z,23.00
2019-03-05T10:12:59.142Z,23.10
2019-03-05T10:15:24.841Z,23.00
2019-03-05T10:17:52.304Z,23.10
2019-03-05T10:20:29.085Z,23.00
2019-03-05T10:22:57.864Z,23.00
2019-03-05T10:25:26.186Z,23.00
2019-03-05T10:27:54.133Z,23.00
2019-03-05T10:30:32.598Z,22.90
2019-03-05T10:33:01.435Z,22.90
2019-03-05T10:35:28.298Z,22.90
2019-03-05T10:37:57.471Z,22.90
2019-03-05T10:40:34.724Z,22.80
2019-03-05T10:43:08.362Z,22.90
2019-03-05T10:45:33.692Z,22.90
2019-03-05T10:48:01.097Z,22.90
2019-03-05T10:50:30.245Z,22.90
2019-03-05T10:52:57.402Z,22.80
2019-03-05T10:55:26.479Z,22.90
2019-03-05T10:57:53.527Z,22.80
2019-03-05T11:00:30.128Z,22.80
2019-03-05T11:02:56.872Z,22.80
2019-03-05T11:05:24.117Z,22.80
2019-03-05T11:07:50.987Z,22.80
2019-03-05T11:10:17.779Z,22.80
2019-03-05T11:12:45.279Z,22.80
2019-03-05T11:15:17.141Z,22.70
2019-03-05T11:17:43.883Z,22.70
2019-03-05T11:20:10.851Z,22.70
2019-03-05T11:22:37.574Z,22.70
2019-03-05T11:25:12.085Z,22.70
2019-03-05T11:27:38.856Z,22.70
2019-03-05T11:30:16.787Z,22.70
2019-03-05T11:32:43.544Z,22.70
2019-03-05T11:35:13.597Z,22.70
2019-03-05T11:37:40.715Z,22.70
2019-03-05T11:40:20.782Z,22.70
2019-03-05T11:42:40.941Z,22.70
2019-03-05T11:45:16.122Z,22.70
2019-03-05T11:47:42.852Z,22.70
2019-03-05T11:50:11.713Z,22.70
2019-03-05T11:52:38.478Z,22.70
2019-03-05T11:55:10.734Z,22.70
2019-03-05T11:57:37.701Z,22.70
2019-03-05T12:00:15.712Z,22.70
2019-03-05T12:02:42.609Z,22.70
2019-03-05T12:05:11.882Z,22.70
2019-03-05T12:07:39.021Z,22.70
2019-03-05T12:10:18.717Z,22.70
2019-03-05T12:12:46.038Z,22.70
2019-03-05T12:15:16.552Z,22.70
2019-03-05T12:17:43.486Z,22.70
2019-03-05T12:20:12.611Z,22.70
2019-03-05T12:22:39.397Z,22.70
2019-03-05T12:25:15.975Z,22.70
2019-03-05T12:27:43.138Z,22.70
2019-03-05T12:30:17.394Z,22.70
2019-03-05T12:32:44.157Z,22.70
2019-03-05T12:35:13.044Z,22.70
2019-03-05T12:37:40.205Z,22.60
2019-03-05T12:40:14.139Z,22.60
2019-03-05T12:42:40.873Z,22.60
2019-03-05T12:45:10.917Z,22.60
2019-03-05T12:47:38.013Z,22.60
2019-03-05T12:50:10.498Z,22.60
2019-03-05T12:52:37.467Z,22.60
2019-03-05T12:55:08.467Z,22.60
2019-03-05T12:57:35.911Z,22.60
2019-03-05T13:00:10.082Z,22.60
2019-03-05T13:02:36.903Z,22.60
2019-03-05T13:05:09.170Z,22.60
2019-03-05T13:07:37.076Z,22.60
2019-03-05T13:10:12.854Z,22.60
2019-03-05T13:12:40.228Z,22.60
2019-03-05T13:15:12.523Z,22.60
2019-03-05T13:17:39.689Z,22.60
2019-03-05T13:20:12.244Z,22.60
2019-03-05T13:22:39.167Z,22.60
2019-03-05T13:25:10.202Z,22.50
2019-03-05T13:27:37.348Z,22.50
2019-03-05T13:30:10.690Z,22.50
2019-03-05T13:32:38.012Z,22.50
2019-03-05T13:35:08.995Z,22.50
2019-03-05T13:37:36.010Z,22.50
2019-03-05T13:40:09.212Z,22.50
2019-03-05T13:42:36.307Z,22.50
2019-03-05T13:45:05.450Z,22.50
2019-03-05T13:47:32.596Z,22.50
2019-03-05T13:50:11.376Z,22.50
2019-03-05T13:53:14.776Z,22.50
2019-03-05T13:56:14.214Z,22.50
2019-03-05T13:59:13.980Z,22.50
2019-03-05T14:01:40.864Z,22.50
2019-03-05T14:04:31.384Z,22.50
2019-03-05T14:07:26.999Z,22.50
2019-03-05T14:09:53.908Z,22.50
2019-03-05T14:12:20.925Z,22.50
2019-03-05T14:14:47.729Z,22.50
2019-03-05T14:17:19.024Z,22.50
2019-03-05T14:19:46.452Z,22.50
2019-03-05T14:22:13.317Z,22.50
2019-03-05T14:24:40.438Z,22.40
2019-03-05T14:27:07.942Z,22.40
2019-03-05T14:29:34.875Z,22.40
2019-03-05T14:32:02.802Z,22.40
2019-03-05T14:34:29.628Z,22.40
2019-03-05T14:36:56.387Z,22.40
2019-03-05T14:39:29.291Z,22.50
2019-03-05T14:41:56.621Z,22.50
2019-03-05T14:44:23.604Z,22.50
2019-03-05T14:46:56.509Z,22.50
2019-03-05T14:49:25.443Z,22.50
2019-03-05T14:51:52.422Z,22.50
2019-03-05T14:54:21.565Z,22.40
2019-03-05T14:56:48.169Z,22.40
2019-03-05T14:59:15.384Z,22.40
2019-03-05T15:01:42.706Z,22.40
2019-03-05T15:04:10.059Z,22.40
2019-03-05T15:06:36.850Z,22.40
2019-03-05T15:09:05.013Z,22.40
2019-03-05T15:11:32.814Z,22.40
2019-03-05T15:13:59.758Z,22.40
2019-03-05T15:16:26.805Z,22.40
2019-03-05T15:18:53.790Z,22.40
2019-03-05T15:21:21.037Z,22.40
2019-03-05T15:23:48.267Z,22.40
2019-03-05T15:26:15.678Z,22.40
2019-03-05T15:28:55.493Z,22.40
2019-03-05T15:31:11.304Z,22.40
2019-03-05T15:33:38.264Z,22.40
2019-03-05T15:36:05.109Z,22.40
2019-03-05T15:38:32.293Z,22.40
2019-03-05T15:40:59.149Z,22.40
2019-03-05T15:43:26.186Z,22.40
2019-03-05T15:45:53.012Z,22.40
2019-03-05T15:48:20.401Z,22.40
2019-03-05T15:50:47.238Z,22.40
2019-03-05T15:53:14.251Z,22.40
2019-03-05T15:55:41.203Z,22.40
2019-03-05T15:58:08.072Z,22.40
2019-03-05T16:00:34.870Z,22.40
2019-03-05T16:03:01.936Z,22.50
2019-03-05T16:05:28.699Z,22.50
2019-03-05T16:07:55.423Z,22.50
2019-03-05T16:10:22.602Z,22.60
2019-03-05T16:12:49.422Z,22.60
2019-03-05T16:15:18.578Z,22.70
2019-03-05T16:17:45.665Z,22.70
2019-03-05T16:20:16.115Z,22.70
2019-03-05T16:22:42.864Z,22.80
2019-03-05T16:25:15.207Z,22.80
2019-03-05T16:27:42.278Z,22.80
2019-03-05T16:30:43.764Z,22.90
2019-03-05T16:33:23.814Z,22.90
2019-03-05T16:36:08.861Z,23.00
2019-03-05T16:38:55.156Z,23.00
2019-03-05T16:41:22.688Z,23.00
2019-03-05T16:43:55.670Z,23.00
2019-03-05T16:46:41.806Z,23.10
2019-03-05T16:49:18.172Z,23.10
2019-03-05T16:52:00.552Z,23.10
2019-03-05T16:54:44.458Z,23.20
2019-03-05T16:57:29.478Z,23.20
2019-03-05T16:59:57.983Z,23.20
2019-03-05T17:02:35.631Z,23.20
2019-03-05T17:05:22.192Z,23.20
2019-03-05T17:07:50.930Z,23.20
2019-03-05T17:10:36.414Z,23.20
2019-03-05T17:13:03.958Z,23.20
2019-03-05T17:15:30.684Z,23.20
2019-03-05T17:17:57.981Z,23.30
2019-03-05T17:20:24.741Z,23.20
2019-03-05T17:22:51.519Z,23.20
2019-03-05T17:25:20.983Z,23.10
2019-03-05T17:27:47.864Z,23.20
2019-03-05T17:30:15.905Z,23.10
2019-03-05T17:32:42.808Z,23.10
2019-03-05T17:35:11.682Z,23.10
2019-03-05T17:37:38.783Z,23.10
2019-03-05T17:40:09.982Z,23.00
2019-03-05T17:42:37.021Z,23.00
2019-03-05T17:45:09.870Z,23.00
2019-03-05T17:47:36.673Z,23.00
2019-03-05T17:50:09.109Z,23.00
2019-03-05T17:52:35.829Z,22.90
2019-03-05T17:55:06.789Z,22.90
2019-03-05T17:57:33.968Z,22.90
2019-03-05T18:00:00.759Z,22.90
2019-03-05T18:02:28.231Z,22.90
2019-03-05T18:04:55.800Z,22.80
2019-03-05T18:07:23.367Z,22.80
2019-03-05T18:09:50.571Z,22.80
2019-03-05T18:12:17.370Z,22.80
2019-03-05T18:14:44.291Z,22.70
2019-03-05T18:17:11.408Z,22.70
2019-03-05T18:19:38.545Z,22.70
2019-03-05T18:22:05.513Z,22.70
2019-03-05T18:24:32.277Z,22.60
2019-03-05T18:26:59.069Z,22.60
2019-03-05T18:29:27.278Z,22.60
2019-03-05T18:31:54.359Z,22.60
2019-03-05T18:34:21.541Z,22.60
2019-03-05T18:36:48.908Z,22.60
2019-03-05T18:39:15.939Z,22.50
2019-03-05T18:41:42.968Z,22.50
2019-03-05T18:44:10.111Z,22.50
2019-03-05T18:46:37.291Z,22.50
2019-03-05T18:49:04.337Z,22.40
2019-03-05T18:51:31.373Z,22.40
2019-03-05T18:53:58.099Z,22.40
2019-03-05T18:56:25.017Z,22.40
2019-03-05T18:58:52.498Z,22.30
2019-03-05T19:01:19.258Z,22.30
2019-03-05T19:03:46.009Z,22.30
2019-03-05T19:06:12.794Z,22.30
2019-03-05T19:08:39.525Z,22.30
2019-03-05T19:11:06.348Z,22.20
2019-03-05T19:13:33.780Z,22.20
2019-03-05T19:16:00.817Z,22.20
2019-03-05T19:18:28.038Z,22.20
2019-03-05T19:20:54.999Z,22.20
2019-03-05T19:23:21.744Z,22.10
2019-03-05T19:25:48.746Z,22.10
2019-03-05T19:28:15.540Z,22.10
2019-03-05T19:30:50.324Z,22.10
2019-03-05T19:33:17.679Z,22.10
2019-03-05T19:35:44.403Z,22.10
2019-03-05T19:38:11.525Z,22.10
2019-03-05T19:40:44.144Z,22.10
2019-03-05T19:43:10.883Z,22.10
2019-03-05T19:45:38.029Z,22.00
2019-03-05T19:48:04.968Z,22.00
2019-03-05T19:50:32.139Z,22.00
2019-03-05T19:52:59.019Z,22.00
2019-03-05T19:55:27.855Z,22.00
2019-03-05T19:58:11.697Z,22.00
2019-03-05T20:00:46.806Z,22.00
2019-03-05T20:03:13.565Z,21.90
2019-03-05T20:05:40.313Z,21.90
2019-03-05T20:08:07.164Z,21.90
2019-03-05T20:10:36.460Z,21.90
2019-03-05T20:13:03.275Z,21.90
2019-03-05T20:15:30.613Z,21.90
2019-03-05T20:17:59.161Z,21.90
2019-03-05T20:20:26.272Z,21.90
2019-03-05T20:22:53.066Z,21.80
2019-03-05T20:25:24.142Z,21.80
2019-03-05T20:27:51.263Z,21.80
2019-03-05T20:30:22.861Z,21.80
2019-03-05T20:32:49.756Z,21.80
2019-03-05T20:35:17.187Z,21.80
2019-03-05T20:37:45.603Z,21.70
2019-03-05T20:40:28.000Z,21.70
2019-03-05T20:42:55.086Z,21.80
2019-03-05T20:45:32.029Z,21.70
2019-03-05T20:47:58.765Z,21.70
2019-03-05T20:50:25.498Z,21.70
2019-03-05T20:52:52.621Z,21.70
2019-03-05T20:55:22.270Z,21.70
2019-03-05T20:57:49.047Z,21.70
2019-03-05T21:00:34.038Z,21.70
2019-03-05T21:03:08.840Z,21.70
2019-03-05T21:05:46.153Z,21.70
2019-03-05T21:08:13.085Z,21.70
2019-03-05T21:10:39.810Z,21.70
2019-03-05T21:13:06.911Z,21.60
2019-03-05T21:15:35.176Z,21.60
2019-03-05T21:18:08.426Z,21.60
2019-03-05T21:20:35.211Z,21.60
2019-03-05T21:23:02.566Z,21.60
2019-03-05T21:25:29.611Z,21.60
2019-03-05T21:27:56.588Z,21.60
2019-03-05T21:30:25.992Z,21.50
2019-03-05T21:32:52.819Z,21.60
2019-03-05T21:35:19.788Z,21.50
2019-03-05T21:37:46.885Z,21.50
2019-03-05T21:40:28.311Z,21.50
2019-03-05T21:42:55.449Z,21.50
2019-03-05T21:45:44.054Z,21.50
2019-03-05T21:48:11.110Z,21.50
2019-03-05T21:50:38.115Z,21.50
2019-03-05T21:53:04.969Z,21.50
2019-03-05T21:55:32.066Z,21.50
2019-03-05T21:57:58.827Z,21.40
2019-03-05T22:00:35.320Z,21.40
2019-03-05T22:03:02.099Z,21.40
2019-03-05T22:05:29.259Z,21.40
2019-03-05T22:07:55.987Z,21.40
2019-03-05T22:10:23.258Z,21.40
2019-03-05T22:12:50.671Z,21.40
2019-03-05T22:15:24.650Z,21.40
2019-03-05T22:17:51.578Z,21.40
2019-03-05T22:20:19.071Z,21.40
2019-03-05T22:22:45.877Z,21.40
2019-03-05T22:25:18.658Z,21.40
2019-03-05T22:27:45.571Z,21.40
2019-03-05T22:30:25.980Z,21.40
2019-03-05T22:32:52.745Z,21.30
2019-03-05T22:35:19.967Z,21.30
2019-03-05T22:37:46.908Z,21.30
2019-03-05T22:40:16.452Z,21.30
2019-03-05T22:42:43.228Z,21.30
2019-03-05T22:45:25.990Z,21.30
2019-03-05T22:47:52.757Z,21.30
2019-03-05T22:50:19.811Z,21.30
2019-03-05T22:52:46.967Z,21.20
2019-03-05T22:55:15.480Z,21.20
2019-03-05T22:57:42.812Z,21.20
2019-03-05T23:00:51.736Z,21.30
2019-03-05T23:03:22.834Z,21.30
2019-03-05T23:05:49.920Z,21.20
2019-03-05T23:08:17.028Z,21.20
2019-03-05T23:10:43.887Z,21.20
2019-03-05T23:13:10.695Z,21.20
2019-03-05T23:15:37.532Z,21.20
2019-03-05T23:18:04.307Z,21.20
2019-03-05T23:20:31.189Z,21.20
2019-03-05T23:22:58.051Z,21.20
2019-03-05T23:25:25.168Z,21.20
2019-03-05T23:27:52.306Z,21.20
2019-03-05T23:30:20.579Z,21.20
2019-03-05T23:32:51.488Z,21.20
2019-03-05T23:35:18.424Z,21.20
2019-03-05T23:37:45.172Z,21.20
2019-03-05T23:40:15.845Z,21.20
2019-03-05T23:42:45.480Z,21.10
2019-03-05T23:45:15.393Z,21.20
2019-03-05T23:47:42.253Z,21.10
2019-03-05T23:50:12.460Z,21.20
2019-03-05T23:52:39.890Z,21.20
2019-03-05T23:55:08.858Z,21.10
2019-03-05T23:57:35.795Z,21.10
